Terminal Aerodrome Forecast
Issued by NWS Cleveland, OH

Home | Current Version | Previous Version | Graphics & Text | Print | Product List | Glossary On
Versions: 1 2 3 4 5 6 7 8 9 10 11 12 13 14 15 16 17 18 19 20 21 22 23 24
000
FTUS41 KCLE 312300
TAFMFD
TAF
KMFD 312336Z 0100/0124 21010KT P6SM SCT020 OVC035
      TEMPO 0100/0102 3SM -SHRA OVC020
     FM010400 20004KT P6SM OVC020
     FM010800 20005KT 2SM BR OVC008
     FM011600 21012G18KT 5SM BR OVC012=

USA.gov is the U.S. government's official web portal to all federal, state and local government web resources and services.